sensor_id;sensor_type;location;lat;lon;timestamp;temperature;humidity
29725;DHT22;16636;48.394;15.468;2022-08-19T00:01:33;19.90;99.90
29725;DHT22;16636;48.394;15.468;2022-08-19T00:04:02;20.00;99.90
29725;DHT22;16636;48.394;15.468;2022-08-19T00:06:29;19.90;99.90
29725;DHT22;16636;48.394;15.468;2022-08-19T00:08:56;19.90;99.90
29725;DHT22;16636;48.394;15.468;2022-08-19T00:11:23;19.90;99.90
29725;DHT22;16636;48.394;15.468;2022-08-19T00:17:07;20.00;99.90
29725;DHT22;16636;48.394;15.468;2022-08-19T00:19:34;20.00;99.90
29725;DHT22;16636;48.394;15.468;2022-08-19T00:22:00;20.10;99.90
29725;DHT22;16636;48.394;15.468;2022-08-19T00:24:28;20.10;99.90
29725;DHT22;16636;48.394;15.468;2022-08-19T00:26:55;20.10;99.90
29725;DHT22;16636;48.394;15.468;2022-08-19T00:29:23;20.10;99.90
29725;DHT22;16636;48.394;15.468;2022-08-19T00:31:50;20.10;99.90
29725;DHT22;16636;48.394;15.468;2022-08-19T00:34:19;20.20;99.90
29725;DHT22;16636;48.394;15.468;2022-08-19T00:36:45;20.20;99.90
29725;DHT22;16636;48.394;15.468;2022-08-19T00:39:13;20.20;99.90
29725;DHT22;16636;48.394;15.468;2022-08-19T00:41:41;20.10;99.90
29725;DHT22;16636;48.394;15.468;2022-08-19T00:46:37;20.10;99.90
29725;DHT22;16636;48.394;15.468;2022-08-19T00:49:10;20.10;99.90
29725;DHT22;16636;48.394;15.468;2022-08-19T00:51:41;20.10;99.90
29725;DHT22;16636;48.394;15.468;2022-08-19T00:54:08;20.10;99.90
29725;DHT22;16636;48.394;15.468;2022-08-19T00:56:35;20.10;99.90
29725;DHT22;16636;48.394;15.468;2022-08-19T00:59:02;20.00;99.90
29725;DHT22;16636;48.394;15.468;2022-08-19T01:01:38;20.00;99.90
29725;DHT22;16636;48.394;15.468;2022-08-19T01:04:05;20.00;99.90
29725;DHT22;16636;48.394;15.468;2022-08-19T01:06:32;20.00;99.90
29725;DHT22;16636;48.394;15.468;2022-08-19T01:09:00;20.00;99.90
29725;DHT22;16636;48.394;15.468;2022-08-19T01:11:32;20.00;99.90
29725;DHT22;16636;48.394;15.468;2022-08-19T01:13:58;20.00;99.90
29725;DHT22;16636;48.394;15.468;2022-08-19T01:16:27;20.00;99.90
29725;DHT22;16636;48.394;15.468;2022-08-19T01:18:54;20.00;99.90
29725;DHT22;16636;48.394;15.468;2022-08-19T01:23:55;19.90;99.90
29725;DHT22;16636;48.394;15.468;2022-08-19T01:26:22;19.90;99.90
29725;DHT22;16636;48.394;15.468;2022-08-19T01:28:51;20.00;99.90
29725;DHT22;16636;48.394;15.468;2022-08-19T01:31:22;20.00;99.90
29725;DHT22;16636;48.394;15.468;2022-08-19T01:33:50;20.00;99.90
29725;DHT22;16636;48.394;15.468;2022-08-19T01:36:25;19.90;99.90
29725;DHT22;16636;48.394;15.468;2022-08-19T01:38:52;19.90;99.90
29725;DHT22;16636;48.394;15.468;2022-08-19T01:41:18;19.90;99.90
29725;DHT22;16636;48.394;15.468;2022-08-19T01:43:46;19.90;99.90
29725;DHT22;16636;48.394;15.468;2022-08-19T01:46:12;19.90;99.90
29725;DHT22;16636;48.394;15.468;2022-08-19T01:48:39;19.90;99.90
29725;DHT22;16636;48.394;15.468;2022-08-19T01:51:07;19.80;99.90
29725;DHT22;16636;48.394;15.468;2022-08-19T01:53:33;19.80;99.90
29725;DHT22;16636;48.394;15.468;2022-08-19T01:56:00;19.90;99.90
29725;DHT22;16636;48.394;15.468;2022-08-19T01:58:30;19.90;99.90
29725;DHT22;16636;48.394;15.468;2022-08-19T02:00:58;19.90;99.90
29725;DHT22;16636;48.394;15.468;2022-08-19T02:03:25;19.90;99.90
29725;DHT22;16636;48.394;15.468;2022-08-19T02:05:56;19.90;99.90
29725;DHT22;16636;48.394;15.468;2022-08-19T02:08:23;19.90;99.90
29725;DHT22;16636;48.394;15.468;2022-08-19T02:10:49;19.80;99.90
29725;DHT22;16636;48.394;15.468;2022-08-19T02:13:15;19.70;99.90
29725;DHT22;16636;48.394;15.468;2022-08-19T02:15:41;19.70;99.90
29725;DHT22;16636;48.394;15.468;2022-08-19T02:18:07;19.70;99.90
29725;DHT22;16636;48.394;15.468;2022-08-19T02:20:34;19.70;99.90
29725;DHT22;16636;48.394;15.468;2022-08-19T02:23:01;19.70;99.90
29725;DHT22;16636;48.394;15.468;2022-08-19T02:25:27;19.70;99.90
29725;DHT22;16636;48.394;15.468;2022-08-19T02:27:53;19.70;99.90
29725;DHT22;16636;48.394;15.468;2022-08-19T02:30:21;19.80;99.90
29725;DHT22;16636;48.394;15.468;2022-08-19T02:32:47;19.80;99.90
29725;DHT22;16636;48.394;15.468;2022-08-19T02:35:13;19.80;99.90
29725;DHT22;16636;48.394;15.468;2022-08-19T02:37:41;19.70;99.90
29725;DHT22;16636;48.394;15.468;2022-08-19T02:40:27;19.70;99.90
29725;DHT22;16636;48.394;15.468;2022-08-19T02:42:53;19.70;99.90
29725;DHT22;16636;48.394;15.468;2022-08-19T02:45:19;19.70;99.90
29725;DHT22;16636;48.394;15.468;2022-08-19T02:47:45;19.70;99.90
29725;DHT22;16636;48.394;15.468;2022-08-19T02:50:16;19.70;99.90
29725;DHT22;16636;48.394;15.468;2022-08-19T02:52:43;19.80;99.90
29725;DHT22;16636;48.394;15.468;2022-08-19T02:55:09;19.80;99.90
29725;DHT22;16636;48.394;15.468;2022-08-19T02:57:35;19.80;99.90
29725;DHT22;16636;48.394;15.468;2022-08-19T03:00:05;19.80;99.90
29725;DHT22;16636;48.394;15.468;2022-08-19T03:02:31;19.70;99.90
29725;DHT22;16636;48.394;15.468;2022-08-19T03:04:57;19.70;99.90
29725;DHT22;16636;48.394;15.468;2022-08-19T03:07:23;19.70;99.90
29725;DHT22;16636;48.394;15.468;2022-08-19T03:09:49;19.70;99.90
29725;DHT22;16636;48.394;15.468;2022-08-19T03:12:14;19.70;99.90
29725;DHT22;16636;48.394;15.468;2022-08-19T03:14:40;19.70;99.90
29725;DHT22;16636;48.394;15.468;2022-08-19T03:17:06;19.60;99.90
29725;DHT22;16636;48.394;15.468;2022-08-19T03:19:33;19.50;99.90
29725;DHT22;16636;48.394;15.468;2022-08-19T03:21:59;19.50;99.90
29725;DHT22;16636;48.394;15.468;2022-08-19T03:24:26;19.50;99.90
29725;DHT22;16636;48.394;15.468;2022-08-19T03:26:54;19.50;99.90
29725;DHT22;16636;48.394;15.468;2022-08-19T03:29:24;19.60;99.90
29725;DHT22;16636;48.394;15.468;2022-08-19T03:31:50;19.60;99.90
29725;DHT22;16636;48.394;15.468;2022-08-19T03:34:25;19.60;99.90
29725;DHT22;16636;48.394;15.468;2022-08-19T03:36:56;19.60;99.90
29725;DHT22;16636;48.394;15.468;2022-08-19T03:39:23;19.60;99.90
29725;DHT22;16636;48.394;15.468;2022-08-19T03:41:53;19.50;99.90
29725;DHT22;16636;48.394;15.468;2022-08-19T03:44:22;19.50;99.90
29725;DHT22;16636;48.394;15.468;2022-08-19T03:46:55;19.50;99.90
29725;DHT22;16636;48.394;15.468;2022-08-19T03:49:24;19.50;99.90
29725;DHT22;16636;48.394;15.468;2022-08-19T03:51:50;19.50;99.90
29725;DHT22;16636;48.394;15.468;2022-08-19T03:54:21;19.50;99.90
29725;DHT22;16636;48.394;15.468;2022-08-19T03:56:53;19.50;99.90
29725;DHT22;16636;48.394;15.468;2022-08-19T03:59:28;19.40;99.90
29725;DHT22;16636;48.394;15.468;2022-08-19T04:01:56;19.40;99.90
29725;DHT22;16636;48.394;15.468;2022-08-19T04:04:23;19.40;99.90
29725;DHT22;16636;48.394;15.468;2022-08-19T04:06:50;19.30;99.90
29725;DHT22;16636;48.394;15.468;2022-08-19T04:09:17;19.30;99.90
29725;DHT22;16636;48.394;15.468;2022-08-19T04:11:50;19.30;99.90
29725;DHT22;16636;48.394;15.468;2022-08-19T04:14:22;19.40;99.90
29725;DHT22;16636;48.394;15.468;2022-08-19T04:16:49;19.40;99.90
29725;DHT22;16636;48.394;15.468;2022-08-19T04:19:17;19.30;99.90
29725;DHT22;16636;48.394;15.468;2022-08-19T04:21:45;19.40;99.90
29725;DHT22;16636;48.394;15.468;2022-08-19T04:24:12;19.40;99.90
29725;DHT22;16636;48.394;15.468;2022-08-19T04:26:38;19.40;99.90
29725;DHT22;16636;48.394;15.468;2022-08-19T04:29:13;19.40;99.90
29725;DHT22;16636;48.394;15.468;2022-08-19T04:31:41;19.40;99.90
29725;DHT22;16636;48.394;15.468;2022-08-19T04:34:09;19.50;99.90
29725;DHT22;16636;48.394;15.468;2022-08-19T04:36:37;19.50;99.90
29725;DHT22;16636;48.394;15.468;2022-08-19T04:39:09;19.50;99.90
29725;DHT22;16636;48.394;15.468;2022-08-19T04:41:36;19.50;99.90
29725;DHT22;16636;48.394;15.468;2022-08-19T04:44:21;19.50;99.90
29725;DHT22;16636;48.394;15.468;2022-08-19T04:46:48;19.40;99.90
29725;DHT22;16636;48.394;15.468;2022-08-19T04:49:15;19.40;99.90
29725;DHT22;16636;48.394;15.468;2022-08-19T04:51:44;19.40;99.90
29725;DHT22;16636;48.394;15.468;2022-08-19T04:54:11;19.40;99.90
29725;DHT22;16636;48.394;15.468;2022-08-19T04:56:39;19.40;99.90
29725;DHT22;16636;48.394;15.468;2022-08-19T04:59:05;19.40;99.90
29725;DHT22;16636;48.394;15.468;2022-08-19T05:01:32;19.30;99.90
29725;DHT22;16636;48.394;15.468;2022-08-19T05:04:04;19.30;99.90
29725;DHT22;16636;48.394;15.468;2022-08-19T05:06:31;19.30;99.90
29725;DHT22;16636;48.394;15.468;2022-08-19T05:09:02;19.30;99.90
29725;DHT22;16636;48.394;15.468;2022-08-19T05:11:32;19.30;99.90
29725;DHT22;16636;48.394;15.468;2022-08-19T05:13:58;19.30;99.90
29725;DHT22;16636;48.394;15.468;2022-08-19T05:16:26;19.30;99.90
29725;DHT22;16636;48.394;15.468;2022-08-19T05:18:52;19.30;99.90
29725;DHT22;16636;48.394;15.468;2022-08-19T05:21:38;19.20;99.90
29725;DHT22;16636;48.394;15.468;2022-08-19T05:24:24;19.20;99.90
29725;DHT22;16636;48.394;15.468;2022-08-19T05:26:51;19.20;99.90
29725;DHT22;16636;48.394;15.468;2022-08-19T05:29:21;19.30;99.90
29725;DHT22;16636;48.394;15.468;2022-08-19T05:31:47;19.30;99.90
29725;DHT22;16636;48.394;15.468;2022-08-19T05:34:20;19.30;99.90
29725;DHT22;16636;48.394;15.468;2022-08-19T05:36:49;19.40;99.90
29725;DHT22;16636;48.394;15.468;2022-08-19T05:39:19;19.50;99.90
29725;DHT22;16636;48.394;15.468;2022-08-19T05:41:47;19.50;99.90
29725;DHT22;16636;48.394;15.468;2022-08-19T05:44:14;19.50;99.90
29725;DHT22;16636;48.394;15.468;2022-08-19T05:46:43;19.50;99.90
29725;DHT22;16636;48.394;15.468;2022-08-19T05:49:13;19.50;99.90
29725;DHT22;16636;48.394;15.468;2022-08-19T05:51:40;19.60;99.90
29725;DHT22;16636;48.394;15.468;2022-08-19T05:54:06;19.60;99.90
29725;DHT22;16636;48.394;15.468;2022-08-19T05:56:34;19.60;99.90
29725;DHT22;16636;48.394;15.468;2022-08-19T05:59:05;19.70;99.90
29725;DHT22;16636;48.394;15.468;2022-08-19T06:01:38;19.70;99.90
29725;DHT22;16636;48.394;15.468;2022-08-19T06:04:05;19.70;99.90
29725;DHT22;16636;48.394;15.468;2022-08-19T06:06:32;19.80;99.90
29725;DHT22;16636;48.394;15.468;2022-08-19T06:09:01;19.80;99.90
29725;DHT22;16636;48.394;15.468;2022-08-19T06:11:39;19.80;99.90
29725;DHT22;16636;48.394;15.468;2022-08-19T06:14:08;19.90;99.90
29725;DHT22;16636;48.394;15.468;2022-08-19T06:16:53;19.90;99.90
29725;DHT22;16636;48.394;15.468;2022-08-19T06:19:20;19.90;99.90
29725;DHT22;16636;48.394;15.468;2022-08-19T06:21:48;20.00;99.90
29725;DHT22;16636;48.394;15.468;2022-08-19T06:24:19;20.10;99.90
29725;DHT22;16636;48.394;15.468;2022-08-19T06:26:47;20.10;99.90
29725;DHT22;16636;48.394;15.468;2022-08-19T06:29:14;20.10;99.90
29725;DHT22;16636;48.394;15.468;2022-08-19T06:31:43;20.20;99.90
29725;DHT22;16636;48.394;15.468;2022-08-19T06:34:09;20.20;99.90
29725;DHT22;16636;48.394;15.468;2022-08-19T06:36:41;20.20;99.90
29725;DHT22;16636;48.394;15.468;2022-08-19T06:39:19;20.20;99.90
29725;DHT22;16636;48.394;15.468;2022-08-19T06:41:48;20.20;99.90
29725;DHT22;16636;48.394;15.468;2022-08-19T06:44:17;20.30;99.90
29725;DHT22;16636;48.394;15.468;2022-08-19T06:46:43;20.30;99.90
29725;DHT22;16636;48.394;15.468;2022-08-19T06:49:10;20.30;99.90
29725;DHT22;16636;48.394;15.468;2022-08-19T06:51:43;20.30;99.90
29725;DHT22;16636;48.394;15.468;2022-08-19T06:54:10;20.40;99.90
29725;DHT22;16636;48.394;15.468;2022-08-19T06:56:37;20.40;99.90
29725;DHT22;16636;48.394;15.468;2022-08-19T06:59:09;20.40;99.90
29725;DHT22;16636;48.394;15.468;2022-08-19T07:01:41;20.50;99.90
29725;DHT22;16636;48.394;15.468;2022-08-19T07:04:09;20.50;99.90
29725;DHT22;16636;48.394;15.468;2022-08-19T07:06:36;20.60;99.90
29725;DHT22;16636;48.394;15.468;2022-08-19T07:09:04;20.60;99.90
29725;DHT22;16636;48.394;15.468;2022-08-19T07:11:30;20.60;99.90
29725;DHT22;16636;48.394;15.468;2022-08-19T07:13:58;20.60;99.90
29725;DHT22;16636;48.394;15.468;2022-08-19T07:16:25;20.70;99.90
29725;DHT22;16636;48.394;15.468;2022-08-19T07:18:51;20.70;99.90
29725;DHT22;16636;48.394;15.468;2022-08-19T07:21:21;20.70;99.90
29725;DHT22;16636;48.394;15.468;2022-08-19T07:23:49;20.80;99.90
29725;DHT22;16636;48.394;15.468;2022-08-19T07:26:30;20.80;99.90
29725;DHT22;16636;48.394;15.468;2022-08-19T07:28:57;20.90;99.90
29725;DHT22;16636;48.394;15.468;2022-08-19T07:31:26;20.90;99.90
29725;DHT22;16636;48.394;15.468;2022-08-19T07:33:54;21.10;99.90
29725;DHT22;16636;48.394;15.468;2022-08-19T07:36:26;21.20;99.90
29725;DHT22;16636;48.394;15.468;2022-08-19T07:39:00;21.20;99.90
29725;DHT22;16636;48.394;15.468;2022-08-19T07:41:27;21.30;99.90
29725;DHT22;16636;48.394;15.468;2022-08-19T07:43:58;21.40;99.90
29725;DHT22;16636;48.394;15.468;2022-08-19T07:46:27;21.40;99.90
29725;DHT22;16636;48.394;15.468;2022-08-19T07:48:53;21.50;99.90
29725;DHT22;16636;48.394;15.468;2022-08-19T07:51:21;21.50;99.90
29725;DHT22;16636;48.394;15.468;2022-08-19T07:53:48;21.60;99.90
29725;DHT22;16636;48.394;15.468;2022-08-19T07:56:18;21.60;99.90
29725;DHT22;16636;48.394;15.468;2022-08-19T07:58:46;21.70;99.90
29725;DHT22;16636;48.394;15.468;2022-08-19T08:01:34;21.70;99.90
29725;DHT22;16636;48.394;15.468;2022-08-19T08:04:00;21.80;99.90
29725;DHT22;16636;48.394;15.468;2022-08-19T08:06:44;21.90;99.90
29725;DHT22;16636;48.394;15.468;2022-08-19T08:09:36;21.90;99.90
29725;DHT22;16636;48.394;15.468;2022-08-19T08:12:04;21.90;99.90
29725;DHT22;16636;48.394;15.468;2022-08-19T08:17:04;22.00;99.90
29725;DHT22;16636;48.394;15.468;2022-08-19T08:19:30;22.10;99.90
29725;DHT22;16636;48.394;15.468;2022-08-19T08:21:59;22.00;99.90
29725;DHT22;16636;48.394;15.468;2022-08-19T08:24:28;22.10;99.90
29725;DHT22;16636;48.394;15.468;2022-08-19T08:26:57;22.10;99.90
29725;DHT22;16636;48.394;15.468;2022-08-19T08:29:26;22.10;99.90
29725;DHT22;16636;48.394;15.468;2022-08-19T08:31:52;22.20;99.90
29725;DHT22;16636;48.394;15.468;2022-08-19T08:34:20;22.30;99.90
29725;DHT22;16636;48.394;15.468;2022-08-19T08:36:46;22.40;99.90
29725;DHT22;16636;48.394;15.468;2022-08-19T08:39:18;22.50;99.90
29725;DHT22;16636;48.394;15.468;2022-08-19T08:41:58;22.50;99.90
29725;DHT22;16636;48.394;15.468;2022-08-19T08:44:52;22.60;99.90
29725;DHT22;16636;48.394;15.468;2022-08-19T08:47:20;22.70;99.90
29725;DHT22;16636;48.394;15.468;2022-08-19T08:49:59;22.70;99.90
29725;DHT22;16636;48.394;15.468;2022-08-19T08:52:29;22.80;99.90
29725;DHT22;16636;48.394;15.468;2022-08-19T08:54:58;22.80;99.90
29725;DHT22;16636;48.394;15.468;2022-08-19T08:58:12;23.00;99.90
29725;DHT22;16636;48.394;15.468;2022-08-19T09:00:37;23.00;99.90
29725;DHT22;16636;48.394;15.468;2022-08-19T09:03:14;23.10;99.90
29725;DHT22;16636;48.394;15.468;2022-08-19T09:11:15;23.00;99.90
29725;DHT22;16636;48.394;15.468;2022-08-19T09:16:18;23.30;99.90
29725;DHT22;16636;48.394;15.468;2022-08-19T09:18:49;23.40;99.90
29725;DHT22;16636;48.394;15.468;2022-08-19T09:21:18;23.50;99.90
29725;DHT22;16636;48.394;15.468;2022-08-19T09:23:44;23.50;99.90
29725;DHT22;16636;48.394;15.468;2022-08-19T09:26:13;23.50;99.90
29725;DHT22;16636;48.394;15.468;2022-08-19T09:28:41;23.50;99.90
29725;DHT22;16636;48.394;15.468;2022-08-19T09:31:14;23.60;99.90
29725;DHT22;16636;48.394;15.468;2022-08-19T09:33:40;23.50;99.90
29725;DHT22;16636;48.394;15.468;2022-08-19T09:36:12;23.50;99.90
29725;DHT22;16636;48.394;15.468;2022-08-19T09:38:39;23.60;99.90
29725;DHT22;16636;48.394;15.468;2022-08-19T09:41:15;23.50;99.90
29725;DHT22;16636;48.394;15.468;2022-08-19T09:43:44;23.50;99.90
29725;DHT22;16636;48.394;15.468;2022-08-19T09:46:10;23.60;99.90
29725;DHT22;16636;48.394;15.468;2022-08-19T09:48:38;23.60;99.90
29725;DHT22;16636;48.394;15.468;2022-08-19T09:51:06;23.70;99.90
29725;DHT22;16636;48.394;15.468;2022-08-19T09:53:34;23.60;99.90
29725;DHT22;16636;48.394;15.468;2022-08-19T09:56:01;23.60;99.90
29725;DHT22;16636;48.394;15.468;2022-08-19T09:58:28;23.50;99.90
29725;DHT22;16636;48.394;15.468;2022-08-19T10:00:56;23.50;99.90
29725;DHT22;16636;48.394;15.468;2022-08-19T10:03:22;23.50;99.90
29725;DHT22;16636;48.394;15.468;2022-08-19T10:05:48;23.50;99.90
29725;DHT22;16636;48.394;15.468;2022-08-19T10:08:23;23.50;99.90
29725;DHT22;16636;48.394;15.468;2022-08-19T10:10:50;23.50;99.90
29725;DHT22;16636;48.394;15.468;2022-08-19T10:13:18;23.70;99.90
29725;DHT22;16636;48.394;15.468;2022-08-19T10:15:47;23.70;99.90
29725;DHT22;16636;48.394;15.468;2022-08-19T10:18:17;23.70;99.90
29725;DHT22;16636;48.394;15.468;2022-08-19T10:20:45;23.80;99.90
29725;DHT22;16636;48.394;15.468;2022-08-19T10:23:12;23.80;99.90
29725;DHT22;16636;48.394;15.468;2022-08-19T10:25:38;23.90;99.90
29725;DHT22;16636;48.394;15.468;2022-08-19T10:28:04;24.00;99.90
29725;DHT22;16636;48.394;15.468;2022-08-19T10:30:32;24.00;99.90
29725;DHT22;16636;48.394;15.468;2022-08-19T10:32:58;24.00;99.90
29725;DHT22;16636;48.394;15.468;2022-08-19T10:35:23;24.00;99.90
29725;DHT22;16636;48.394;15.468;2022-08-19T10:37:54;24.10;99.90
29725;DHT22;16636;48.394;15.468;2022-08-19T10:40:19;24.30;99.90
29725;DHT22;16636;48.394;15.468;2022-08-19T10:42:45;24.30;99.90
29725;DHT22;16636;48.394;15.468;2022-08-19T10:45:11;24.30;99.90
29725;DHT22;16636;48.394;15.468;2022-08-19T10:47:37;24.40;99.90
29725;DHT22;16636;48.394;15.468;2022-08-19T10:50:03;24.30;99.90
29725;DHT22;16636;48.394;15.468;2022-08-19T10:52:49;24.40;99.90
29725;DHT22;16636;48.394;15.468;2022-08-19T10:55:20;24.40;99.90
29725;DHT22;16636;48.394;15.468;2022-08-19T10:58:13;24.60;99.90
29725;DHT22;16636;48.394;15.468;2022-08-19T11:00:40;24.70;99.90
29725;DHT22;16636;48.394;15.468;2022-08-19T11:03:08;24.90;99.90
29725;DHT22;16636;48.394;15.468;2022-08-19T11:05:34;25.30;99.90
29725;DHT22;16636;48.394;15.468;2022-08-19T11:08:00;25.60;99.90
29725;DHT22;16636;48.394;15.468;2022-08-19T11:10:25;25.70;99.90
29725;DHT22;16636;48.394;15.468;2022-08-19T11:17:03;26.30;99.90
29725;DHT22;16636;48.394;15.468;2022-08-19T11:19:29;26.90;99.90
29725;DHT22;16636;48.394;15.468;2022-08-19T11:21:55;27.20;99.90
29725;DHT22;16636;48.394;15.468;2022-08-19T11:24:24;27.50;99.90
29725;DHT22;16636;48.394;15.468;2022-08-19T11:26:52;27.50;99.90
29725;DHT22;16636;48.394;15.468;2022-08-19T11:29:22;27.70;99.90
29725;DHT22;16636;48.394;15.468;2022-08-19T11:31:51;27.80;99.90
29725;DHT22;16636;48.394;15.468;2022-08-19T11:34:23;28.00;99.90
29725;DHT22;16636;48.394;15.468;2022-08-19T11:36:51;28.20;99.90
29725;DHT22;16636;48.394;15.468;2022-08-19T11:39:21;28.40;99.90
29725;DHT22;16636;48.394;15.468;2022-08-19T11:41:47;28.60;99.90
29725;DHT22;16636;48.394;15.468;2022-08-19T11:44:14;28.50;99.90
29725;DHT22;16636;48.394;15.468;2022-08-19T11:46:41;28.10;99.90
29725;DHT22;16636;48.394;15.468;2022-08-19T11:49:11;28.00;99.90
29725;DHT22;16636;48.394;15.468;2022-08-19T11:51:37;27.80;99.90
29725;DHT22;16636;48.394;15.468;2022-08-19T11:54:05;27.60;99.90
29725;DHT22;16636;48.394;15.468;2022-08-19T11:56:31;27.50;99.90
29725;DHT22;16636;48.394;15.468;2022-08-19T11:58:57;27.40;99.90
29725;DHT22;16636;48.394;15.468;2022-08-19T12:01:25;27.30;99.90
29725;DHT22;16636;48.394;15.468;2022-08-19T12:03:53;27.20;99.90
29725;DHT22;16636;48.394;15.468;2022-08-19T12:06:25;27.10;99.90
29725;DHT22;16636;48.394;15.468;2022-08-19T12:08:52;27.10;99.90
29725;DHT22;16636;48.394;15.468;2022-08-19T12:11:19;27.20;99.90
29725;DHT22;16636;48.394;15.468;2022-08-19T12:13:45;27.20;99.90
29725;DHT22;16636;48.394;15.468;2022-08-19T12:16:16;27.10;99.90
29725;DHT22;16636;48.394;15.468;2022-08-19T12:18:43;27.00;99.90
29725;DHT22;16636;48.394;15.468;2022-08-19T12:21:17;26.90;99.90
29725;DHT22;16636;48.394;15.468;2022-08-19T12:23:44;26.90;99.90
29725;DHT22;16636;48.394;15.468;2022-08-19T12:26:12;26.80;99.90
29725;DHT22;16636;48.394;15.468;2022-08-19T12:28:39;26.70;99.90
29725;DHT22;16636;48.394;15.468;2022-08-19T12:31:05;26.70;99.90
29725;DHT22;16636;48.394;15.468;2022-08-19T12:33:31;26.70;99.90
29725;DHT22;16636;48.394;15.468;2022-08-19T12:36:05;26.60;99.90
29725;DHT22;16636;48.394;15.468;2022-08-19T12:38:32;26.70;99.90
29725;DHT22;16636;48.394;15.468;2022-08-19T12:41:00;26.60;99.90
29725;DHT22;16636;48.394;15.468;2022-08-19T12:43:28;26.70;99.90
29725;DHT22;16636;48.394;15.468;2022-08-19T12:45:55;26.80;99.90
29725;DHT22;16636;48.394;15.468;2022-08-19T12:48:21;27.00;99.90
29725;DHT22;16636;48.394;15.468;2022-08-19T12:50:47;27.30;99.90
29725;DHT22;16636;48.394;15.468;2022-08-19T12:53:14;27.60;99.90
29725;DHT22;16636;48.394;15.468;2022-08-19T12:55:41;27.90;99.90
29725;DHT22;16636;48.394;15.468;2022-08-19T12:58:08;28.00;99.90
29725;DHT22;16636;48.394;15.468;2022-08-19T13:00:34;27.90;99.90
29725;DHT22;16636;48.394;15.468;2022-08-19T13:03:01;27.80;99.90
29725;DHT22;16636;48.394;15.468;2022-08-19T13:05:29;27.70;99.90
29725;DHT22;16636;48.394;15.468;2022-08-19T13:07:57;27.60;99.90
29725;DHT22;16636;48.394;15.468;2022-08-19T13:10:33;27.50;99.90
29725;DHT22;16636;48.394;15.468;2022-08-19T13:13:07;27.40;99.90
29725;DHT22;16636;48.394;15.468;2022-08-19T13:15:36;27.30;99.90
29725;DHT22;16636;48.394;15.468;2022-08-19T13:18:02;27.30;99.90
29725;DHT22;16636;48.394;15.468;2022-08-19T13:20:29;27.30;99.90
29725;DHT22;16636;48.394;15.468;2022-08-19T13:22:55;27.20;99.90
29725;DHT22;16636;48.394;15.468;2022-08-19T13:25:23;27.20;99.90
29725;DHT22;16636;48.394;15.468;2022-08-19T13:27:49;27.20;99.90
29725;DHT22;16636;48.394;15.468;2022-08-19T13:30:18;27.10;99.90
29725;DHT22;16636;48.394;15.468;2022-08-19T13:33:04;27.00;99.90
29725;DHT22;16636;48.394;15.468;2022-08-19T13:35:51;26.90;99.90
29725;DHT22;16636;48.394;15.468;2022-08-19T13:38:22;26.90;99.90
29725;DHT22;16636;48.394;15.468;2022-08-19T13:40:50;26.80;99.90
29725;DHT22;16636;48.394;15.468;2022-08-19T13:43:18;26.80;99.90
29725;DHT22;16636;48.394;15.468;2022-08-19T13:45:45;26.80;99.90
29725;DHT22;16636;48.394;15.468;2022-08-19T13:48:11;26.80;99.90
29725;DHT22;16636;48.394;15.468;2022-08-19T13:50:41;26.70;99.90
29725;DHT22;16636;48.394;15.468;2022-08-19T13:53:09;26.80;99.90
29725;DHT22;16636;48.394;15.468;2022-08-19T13:55:38;26.80;99.90
29725;DHT22;16636;48.394;15.468;2022-08-19T13:58:04;26.80;99.90
29725;DHT22;16636;48.394;15.468;2022-08-19T14:00:36;26.80;99.90
29725;DHT22;16636;48.394;15.468;2022-08-19T14:03:02;26.90;99.90
29725;DHT22;16636;48.394;15.468;2022-08-19T14:05:30;27.00;99.90
29725;DHT22;16636;48.394;15.468;2022-08-19T14:07:56;27.10;99.90
29725;DHT22;16636;48.394;15.468;2022-08-19T14:10:23;27.20;99.90
29725;DHT22;16636;48.394;15.468;2022-08-19T14:12:55;27.50;99.90
29725;DHT22;16636;48.394;15.468;2022-08-19T14:15:21;27.80;99.90
29725;DHT22;16636;48.394;15.468;2022-08-19T14:17:49;28.00;99.90
29725;DHT22;16636;48.394;15.468;2022-08-19T14:20:15;28.20;99.90
29725;DHT22;16636;48.394;15.468;2022-08-19T14:22:42;28.40;99.90
29725;DHT22;16636;48.394;15.468;2022-08-19T14:25:12;28.60;99.90
29725;DHT22;16636;48.394;15.468;2022-08-19T14:27:39;28.80;99.90
29725;DHT22;16636;48.394;15.468;2022-08-19T14:30:08;28.90;99.90
29725;DHT22;16636;48.394;15.468;2022-08-19T14:32:34;29.10;99.90
29725;DHT22;16636;48.394;15.468;2022-08-19T14:35:01;29.30;99.90
29725;DHT22;16636;48.394;15.468;2022-08-19T14:37:27;29.40;99.90
29725;DHT22;16636;48.394;15.468;2022-08-19T14:39:53;29.40;99.90
29725;DHT22;16636;48.394;15.468;2022-08-19T14:42:19;29.60;99.90
29725;DHT22;16636;48.394;15.468;2022-08-19T14:44:45;29.70;99.90
29725;DHT22;16636;48.394;15.468;2022-08-19T14:47:11;29.90;99.90
29725;DHT22;16636;48.394;15.468;2022-08-19T14:49:38;30.00;99.90
29725;DHT22;16636;48.394;15.468;2022-08-19T14:52:05;30.20;99.90
29725;DHT22;16636;48.394;15.468;2022-08-19T14:54:31;30.20;99.90
29725;DHT22;16636;48.394;15.468;2022-08-19T14:56:57;30.30;99.90
29725;DHT22;16636;48.394;15.468;2022-08-19T14:59:24;30.30;99.90
29725;DHT22;16636;48.394;15.468;2022-08-19T15:01:50;30.30;99.90
29725;DHT22;16636;48.394;15.468;2022-08-19T15:04:15;30.50;99.90
29725;DHT22;16636;48.394;15.468;2022-08-19T15:06:42;30.40;99.90
29725;DHT22;16636;48.394;15.468;2022-08-19T15:09:08;30.40;99.90
29725;DHT22;16636;48.394;15.468;2022-08-19T15:11:35;30.50;99.90
29725;DHT22;16636;48.394;15.468;2022-08-19T15:14:03;30.60;99.90
29725;DHT22;16636;48.394;15.468;2022-08-19T15:16:31;30.60;99.90
29725;DHT22;16636;48.394;15.468;2022-08-19T15:18:58;30.40;99.90
29725;DHT22;16636;48.394;15.468;2022-08-19T15:21:27;30.30;99.90
29725;DHT22;16636;48.394;15.468;2022-08-19T15:23:55;30.30;99.90
29725;DHT22;16636;48.394;15.468;2022-08-19T15:26:21;30.40;99.90
29725;DHT22;16636;48.394;15.468;2022-08-19T15:28:47;30.40;99.90
29725;DHT22;16636;48.394;15.468;2022-08-19T15:31:17;30.40;99.90
29725;DHT22;16636;48.394;15.468;2022-08-19T15:33:43;30.20;99.90
29725;DHT22;16636;48.394;15.468;2022-08-19T15:36:10;30.30;99.90
29725;DHT22;16636;48.394;15.468;2022-08-19T15:38:38;30.30;99.90
29725;DHT22;16636;48.394;15.468;2022-08-19T15:41:05;30.30;99.90
29725;DHT22;16636;48.394;15.468;2022-08-19T15:44:02;30.40;99.90
29725;DHT22;16636;48.394;15.468;2022-08-19T15:46:32;30.40;99.90
29725;DHT22;16636;48.394;15.468;2022-08-19T15:48:59;30.40;99.90